X  Close Metar Aviation Weather Data     EHKD De Kooy Airport
Temperature
14°C Temperature
9°C Dewpoint
72% Humidity



Wind
14 KM/H
9 MPH
4 M/S
8 KTS



240°
WSW
Current Conditions

Overcast Overcast
Pressure 1015.92 (hPa) - 30 (inHg)
Visibility 6 (mile) - 9.7 (km)
Airport
Airport-code EHKD

Location: De Kooy Airport
Distance: 34 (km)

Metar:
EHKD 271925Z AUTO 24008KT 9999 OVC140 14/09 Q1016 BLU NOSIG

Time: 27-05-2024 21:25 CEST